Time;durP1;ratioP1;P1;durP2;ratioP2;P2;SDS_P1;SDS_P2;PMS_P1;PMS_P2;Temp;Humidity;BMP_temperature;BMP_pressure;BME280_temperature;BME280_humidity;BME280_pressure;Samples;Min_cycle;Max_cycle;Signal;HPM_P1;HPM_P2
2024/02/08 00:00:37;;;;;;;2.45;1.48;;;9.30;99.90;;;;;;5071861;28;20059;-81
2024/02/08 00:03:07;;;;;;;2.40;1.15;;;9.30;99.90;;;;;;5056622;28;20061;-81
2024/02/08 00:05:33;;;;;;;2.35;0.93;;;9.30;99.90;;;;;;5056266;28;20474;-81
2024/02/08 00:07:58;;;;;;;1.52;0.80;;;9.30;99.90;;;;;;5072111;28;20112;-81
2024/02/08 00:10:24;;;;;;;1.15;0.77;;;9.30;99.90;;;;;;5071744;28;20060;-78
2024/02/08 00:12:50;;;;;;;1.17;0.95;;;9.30;99.90;;;;;;5071712;28;20389;-81
2024/02/08 00:15:16;;;;;;;2.60;1.10;;;9.30;99.90;;;;;;5056650;28;20394;-82
2024/02/08 00:17:41;;;;;;;2.88;0.88;;;9.30;99.90;;;;;;5071872;28;20025;-81
2024/02/08 00:20:07;;;;;;;2.67;0.95;;;9.30;99.90;;;;;;5056083;28;20025;-81
2024/02/08 00:22:33;;;;;;;1.60;1.00;;;9.30;99.90;;;;;;5054150;28;20025;-81
2024/02/08 00:25:00;;;;;;;2.20;1.02;;;9.40;99.90;;;;;;5054432;28;20036;-81
2024/02/08 00:27:26;;;;;;;2.10;0.80;;;9.30;99.90;;;;;;5055708;28;20036;-79
2024/02/08 00:29:51;;;;;;;1.02;0.85;;;9.40;99.90;;;;;;5055116;28;20033;-81
2024/02/08 00:32:19;;;;;;;4.28;0.90;;;9.30;99.90;;;;;;5071342;28;20029;-81
2024/02/08 00:34:45;;;;;;;1.23;0.60;;;9.30;99.90;;;;;;5054193;28;20191;-81
2024/02/08 00:37:10;;;;;;;0.75;0.70;;;9.40;99.90;;;;;;5056359;28;20482;-82
2024/02/08 00:39:42;;;;;;;2.35;0.88;;;9.40;99.90;;;;;;5071023;28;20068;-82
2024/02/08 00:42:11;;;;;;;1.83;0.90;;;9.40;99.90;;;;;;5071343;28;20157;-82
2024/02/08 00:44:43;;;;;;;2.47;0.95;;;9.40;99.90;;;;;;5054973;28;20037;-81
2024/02/08 00:47:11;;;;;;;;;;;9.40;99.90;;;;;;5071757;28;20032;-82
2024/02/08 00:49:39;;;;;;;1.45;0.80;;;9.40;99.90;;;;;;5055004;28;19909;-81
2024/02/08 00:52:08;;;;;;;1.23;0.73;;;9.50;99.90;;;;;;5055686;28;20032;-81
2024/02/08 00:54:35;;;;;;;2.03;1.00;;;9.50;99.90;;;;;;5055188;28;20036;-81
2024/02/08 00:57:07;;;;;;;0.60;0.50;;;9.50;99.90;;;;;;5055438;28;20021;-82
2024/02/08 00:59:39;;;;;;;;;;;9.50;99.90;;;;;;5055225;28;20036;-80
2024/02/08 01:02:05;;;;;;;1.20;0.77;;;9.50;99.90;;;;;;5054479;28;20326;-81
2024/02/08 01:04:32;;;;;;;0.93;0.70;;;9.50;99.90;;;;;;5054455;28;20041;-80
2024/02/08 01:06:58;;;;;;;1.05;0.52;;;9.50;99.90;;;;;;5054204;28;20029;-81
2024/02/08 01:09:24;;;;;;;1.15;1.00;;;9.50;99.90;;;;;;5054170;28;20228;-81
2024/02/08 01:11:50;;;;;;;1.30;0.70;;;9.50;99.90;;;;;;5054433;28;20037;-81
2024/02/08 01:14:21;;;;;;;1.52;0.90;;;9.50;99.90;;;;;;5054079;28;20055;-81
2024/02/08 01:16:50;;;;;;;1.52;0.80;;;9.50;99.90;;;;;;5054324;28;20021;-81
2024/02/08 01:19:22;;;;;;;1.25;0.70;;;9.50;99.90;;;;;;5053867;28;20470;-81
2024/02/08 01:21:52;;;;;;;1.00;0.80;;;9.50;99.90;;;;;;5053206;28;20036;-82
2024/02/08 01:24:19;;;;;;;1.27;0.85;;;9.50;99.90;;;;;;5054743;28;20040;-82
2024/02/08 01:26:48;;;;;;;1.17;0.50;;;9.60;99.90;;;;;;5069762;28;20029;-81
2024/02/08 01:29:14;;;;;;;0.98;0.65;;;9.60;99.90;;;;;;5054806;28;20485;-82
2024/02/08 01:31:40;;;;;;;1.92;0.60;;;9.60;99.90;;;;;;5053370;28;20025;-82
2024/02/08 01:34:07;;;;;;;1.58;0.77;;;9.60;99.90;;;;;;5054758;28;20033;-82
2024/02/08 01:36:33;;;;;;;1.80;0.93;;;9.60;99.90;;;;;;5053422;28;20025;-81
2024/02/08 01:38:59;;;;;;;1.02;0.60;;;9.60;99.90;;;;;;5054993;28;20033;-82
2024/02/08 01:41:24;;;;;;;1.83;0.60;;;9.60;99.90;;;;;;5054716;28;20029;-81
2024/02/08 01:43:53;;;;;;;0.95;0.70;;;9.60;99.90;;;;;;5053081;28;20413;-82
2024/02/08 01:46:18;;;;;;;0.90;0.60;;;9.60;99.90;;;;;;5070312;28;20390;-81
2024/02/08 01:48:44;;;;;;;1.52;0.68;;;9.70;99.90;;;;;;5054033;28;20036;-81
2024/02/08 01:51:12;;;;;;;0.52;0.50;;;9.70;99.90;;;;;;5070305;28;20024;-82
2024/02/08 01:53:41;;;;;;;1.13;0.68;;;9.70;99.90;;;;;;5069233;28;20029;-81
2024/02/08 01:56:11;;;;;;;2.13;0.70;;;9.70;99.90;;;;;;5054296;28;20087;-81
2024/02/08 01:58:41;;;;;;;0.88;0.70;;;9.70;99.90;;;;;;5053157;28;20462;-81
2024/02/08 02:01:08;;;;;;;1.67;0.75;;;9.70;99.90;;;;;;5054673;28;20055;-81
2024/02/08 02:03:35;;;;;;;1.17;0.60;;;9.70;99.90;;;;;;5053933;28;20025;-81
2024/02/08 02:06:01;;;;;;;1.45;0.70;;;9.80;99.90;;;;;;5054387;28;20362;-81
2024/02/08 02:08:28;;;;;;;1.65;0.75;;;9.70;99.90;;;;;;5070233;28;20021;-82
2024/02/08 02:11:15;;;;;;;1.05;0.60;;;9.80;99.90;;;;;;5054257;28;20033;-82
2024/02/08 02:13:42;;;;;;;1.38;0.52;;;9.80;99.90;;;;;;5069677;28;20036;-81
2024/02/08 02:16:08;;;;;;;1.15;0.50;;;9.80;99.90;;;;;;5069680;28;20029;-80
2024/02/08 02:18:33;;;;;;;1.25;0.73;;;9.80;99.90;;;;;;5069488;28;20032;-80
2024/02/08 02:20:59;;;;;;;0.75;0.55;;;9.80;99.90;;;;;;5053288;28;20143;-82
2024/02/08 02:23:25;;;;;;;1.33;0.70;;;9.70;99.90;;;;;;5053542;28;20028;-82
2024/02/08 02:25:51;;;;;;;1.60;0.60;;;9.80;99.90;;;;;;5068779;28;20461;-81
2024/02/08 02:28:18;;;;;;;0.60;0.40;;;9.80;99.90;;;;;;5053097;28;20130;-81
2024/02/08 02:30:48;;;;;;;1.65;0.50;;;9.80;99.90;;;;;;5052436;28;20098;-80
2024/02/08 02:33:16;;;;;;;0.90;0.50;;;9.80;99.90;;;;;;5053321;28;20056;-81
2024/02/08 02:35:50;;;;;;;2.15;0.77;;;9.80;99.90;;;;;;5053314;28;20036;-80
2024/02/08 02:38:17;;;;;;;0.65;0.52;;;9.90;99.90;;;;;;5052756;28;20112;-81
2024/02/08 02:40:47;;;;;;;0.75;0.55;;;9.90;99.90;;;;;;5053562;28;20021;-81
2024/02/08 02:43:13;;;;;;;1.23;0.40;;;9.80;99.90;;;;;;5069149;28;20052;-81
2024/02/08 02:45:40;;;;;;;1.77;0.70;;;9.90;99.90;;;;;;5052800;28;20040;-80
2024/02/08 02:48:06;;;;;;;0.95;0.40;;;9.90;99.90;;;;;;5052953;28;20035;-80
2024/02/08 02:50:32;;;;;;;1.40;0.60;;;9.90;99.90;;;;;;5053327;28;20104;-80
2024/02/08 02:52:58;;;;;;;1.48;0.40;;;9.90;99.90;;;;;;5068712;28;20083;-81
2024/02/08 02:55:24;;;;;;;0.90;0.30;;;9.90;99.90;;;;;;5053110;28;20037;-80
2024/02/08 02:57:50;;;;;;;0.60;0.40;;;9.90;99.90;;;;;;5052897;28;20033;-81
2024/02/08 03:00:24;;;;;;;0.47;0.30;;;9.90;99.90;;;;;;5068970;28;20029;-81
2024/02/08 03:02:52;;;;;;;1.85;0.60;;;9.90;99.90;;;;;;5052746;28;20067;-81
2024/02/08 03:05:20;;;;;;;1.95;0.50;;;9.90;99.90;;;;;;5068708;28;20033;-81
2024/02/08 03:07:55;;;;;;;0.98;0.45;;;9.90;99.90;;;;;;5053088;28;20118;-82
2024/02/08 03:10:22;;;;;;;1.02;0.70;;;9.90;99.90;;;;;;5052556;28;20477;-80
2024/02/08 03:12:51;;;;;;;0.55;0.43;;;9.90;99.90;;;;;;5052497;28;20029;-81
2024/02/08 03:15:18;;;;;;;0.45;0.30;;;9.90;99.90;;;;;;5069257;28;20040;-80
2024/02/08 03:17:45;;;;;;;0.95;0.60;;;9.90;99.90;;;;;;5068506;28;20032;-80
2024/02/08 03:20:17;;;;;;;1.38;0.50;;;9.90;99.90;;;;;;5068947;28;20036;-80
2024/02/08 03:22:44;;;;;;;3.50;0.68;;;9.90;99.90;;;;;;5051763;28;20422;-80
2024/02/08 03:25:14;;;;;;;0.70;0.60;;;9.90;99.90;;;;;;5068474;28;20045;-81
2024/02/08 03:27:42;;;;;;;0.68;0.35;;;9.90;99.90;;;;;;5052045;28;20025;-80
2024/02/08 03:30:19;;;;;;;0.73;0.40;;;9.90;99.90;;;;;;5052749;28;20032;-80
2024/02/08 03:32:52;;;;;;;1.15;0.60;;;9.90;99.90;;;;;;5052601;28;20075;-80
2024/02/08 03:35:27;;;;;;;0.80;0.50;;;9.90;99.90;;;;;;5068845;28;20032;-80
2024/02/08 03:38:00;;;;;;;1.38;0.65;;;9.90;99.90;;;;;;5051145;28;20075;-81
2024/02/08 03:40:31;;;;;;;1.42;0.68;;;9.80;99.90;;;;;;5068336;28;20052;-80
2024/02/08 03:42:57;;;;;;;0.47;0.40;;;9.90;99.90;;;;;;5067367;28;20099;-80
2024/02/08 03:45:29;;;;;;;1.02;0.40;;;9.80;99.90;;;;;;5068452;28;20036;-80
2024/02/08 03:47:59;;;;;;;0.40;0.40;;;9.80;99.90;;;;;;5068258;28;20028;-81
2024/02/08 03:50:26;;;;;;;1.42;0.40;;;9.80;99.90;;;;;;5052532;28;20032;-81
2024/02/08 03:52:52;;;;;;;0.63;0.45;;;9.80;99.90;;;;;;5050737;28;20121;-80
2024/02/08 03:55:26;;;;;;;0.47;0.35;;;9.80;99.90;;;;;;5051571;28;20060;-81
2024/02/08 03:58:00;;;;;;;0.77;0.38;;;9.80;99.90;;;;;;5053577;28;20025;-78
2024/02/08 04:00:29;;;;;;;0.98;0.35;;;9.80;99.90;;;;;;5056560;28;20059;-81
2024/02/08 04:02:59;;;;;;;1.05;0.40;;;9.80;99.90;;;;;;5055764;28;20025;-81
2024/02/08 04:05:42;;;;;;;1.42;0.52;;;9.80;99.90;;;;;;5072031;28;20071;-80
2024/02/08 04:09:06;;;;;;;1.20;0.30;;;9.80;99.90;;;;;;5071986;28;20032;-79
2024/02/08 04:54:54;;;;;;;2.83;0.52;;;9.90;99.90;;;;;;5055429;28;20083;-80
2024/02/08 04:57:19;;;;;;;0.77;0.30;;;9.80;99.90;;;;;;5071318;28;20417;-80
2024/02/08 04:59:45;;;;;;;3.10;0.40;;;9.90;99.90;;;;;;5070582;28;20538;-79
2024/02/08 05:02:11;;;;;;;0.88;0.40;;;9.90;99.90;;;;;;5055267;28;20028;-79
2024/02/08 05:04:36;;;;;;;1.73;0.40;;;9.90;99.90;;;;;;5070944;28;20040;-79
2024/02/08 05:07:06;;;;;;;1.77;0.40;;;9.90;99.90;;;;;;5070185;28;20171;-79
2024/02/08 05:09:32;;;;;;;1.30;0.30;;;9.90;99.90;;;;;;5054912;28;20059;-79
2024/02/08 05:12:05;;;;;;;1.58;0.40;;;9.90;99.90;;;;;;5054977;28;20446;-80
2024/02/08 05:14:34;;;;;;;0.57;0.38;;;9.90;99.90;;;;;;5071097;28;20036;-80
2024/02/08 05:17:00;;;;;;;2.50;0.32;;;9.90;99.90;;;;;;5053809;28;20029;-79
2024/02/08 05:19:26;;;;;;;0.50;0.40;;;9.90;99.90;;;;;;5055403;28;20649;-80
2024/02/08 05:21:54;;;;;;;1.75;0.40;;;9.90;99.90;;;;;;5054846;28;20029;-79
2024/02/08 05:24:20;;;;;;;0.40;0.40;;;9.90;99.90;;;;;;5055084;28;20025;-80
2024/02/08 05:26:46;;;;;;;1.02;0.50;;;9.90;99.90;;;;;;5070071;28;20397;-79
2024/02/08 05:29:19;;;;;;;1.58;0.32;;;9.80;99.90;;;;;;5070742;28;20028;-79
2024/02/08 05:31:49;;;;;;;2.22;0.50;;;9.80;99.90;;;;;;5054603;28;20025;-78
2024/02/08 05:34:15;;;;;;;1.10;0.40;;;9.80;99.90;;;;;;5071094;28;20043;-80
2024/02/08 05:36:44;;;;;;;0.73;0.50;;;9.80;99.90;;;;;;5054939;28;20032;-79
2024/02/08 05:39:11;;;;;;;0.50;0.32;;;9.80;99.90;;;;;;5055148;28;20032;-80
2024/02/08 05:41:36;;;;;;;0.95;0.47;;;9.90;99.90;;;;;;5070355;28;20029;-80
2024/02/08 05:44:05;;;;;;;3.03;0.70;;;9.80;99.90;;;;;;5053502;28;20044;-80
2024/02/08 05:46:37;;;;;;;0.90;0.50;;;9.90;99.90;;;;;;5054172;28;20466;-81
2024/02/08 05:49:04;;;;;;;1.08;0.40;;;9.90;99.90;;;;;;5052996;28;20222;-80
2024/02/08 05:51:35;;;;;;;0.70;0.50;;;9.90;99.90;;;;;;5070526;28;20051;-80
2024/02/08 05:54:01;;;;;;;1.95;0.85;;;9.90;99.90;;;;;;5053879;28;20100;-81
2024/02/08 05:56:31;;;;;;;1.77;0.40;;;9.90;99.90;;;;;;5054438;28;20028;-80
2024/02/08 05:59:01;;;;;;;1.38;0.47;;;9.90;99.90;;;;;;5069435;28;20555;-80
2024/02/08 06:01:31;;;;;;;2.00;0.50;;;9.90;99.90;;;;;;5070220;28;20057;-80
2024/02/08 06:04:00;;;;;;;1.00;0.50;;;9.90;99.90;;;;;;5052994;28;20104;-81
2024/02/08 06:06:52;;;;;;;1.30;0.52;;;9.90;99.90;;;;;;5053760;28;20021;-82
2024/02/08 06:09:37;;;;;;;1.67;0.60;;;9.90;99.90;;;;;;5054359;28;20039;-81
2024/02/08 06:12:08;;;;;;;3.20;0.73;;;9.90;99.90;;;;;;5053761;28;20094;-80
2024/02/08 06:14:38;;;;;;;4.25;0.63;;;9.90;99.90;;;;;;5054357;28;20067;-81
2024/02/08 06:17:07;;;;;;;0.68;0.47;;;9.90;99.90;;;;;;5051987;28;20032;-80
2024/02/08 06:19:57;;;;;;;0.52;0.40;;;9.90;99.90;;;;;;5051122;28;20748;-80
2024/02/08 06:22:25;;;;;;;0.50;0.30;;;9.90;99.90;;;;;;5037706;28;20491;-81
2024/02/08 06:24:54;;;;;;;0.98;0.40;;;9.90;99.90;;;;;;5052924;28;20045;-79
2024/02/08 06:27:25;;;;;;;1.08;0.93;;;9.90;99.90;;;;;;5052859;28;20021;-79
2024/02/08 06:29:52;;;;;;;1.02;0.40;;;9.90;99.90;;;;;;5050165;28;20115;-79
2024/02/08 06:32:33;;;;;;;0.45;0.30;;;9.90;99.90;;;;;;5052753;28;20029;-80
2024/02/08 06:35:07;;;;;;;2.03;0.40;;;9.90;99.90;;;;;;5052487;28;20028;-80
2024/02/08 06:37:46;;;;;;;0.95;0.40;;;9.90;99.90;;;;;;5053289;28;20036;-80
2024/02/08 06:40:22;;;;;;;1.45;0.52;;;9.90;99.90;;;;;;5059004;28;20046;-80
2024/02/08 07:37:55;;;;;;;0.85;0.55;;;10.20;99.90;;;;;;5056698;28;20055;-77
2024/02/08 07:40:25;;;;;;;0.75;0.40;;;10.20;99.90;;;;;;5055670;28;20029;-77
2024/02/08 07:42:52;;;;;;;1.13;0.25;;;10.20;99.90;;;;;;5055156;28;20044;-77
2024/02/08 07:45:29;;;;;;;0.82;0.40;;;10.20;99.90;;;;;;5055807;28;20036;-78
2024/02/08 07:48:08;;;;;;;0.50;0.30;;;10.20;99.90;;;;;;5056465;28;20025;-77
2024/02/08 07:50:37;;;;;;;0.60;0.40;;;10.20;99.90;;;;;;5056859;28;20367;-78
2024/02/08 07:53:08;;;;;;;0.88;0.38;;;10.20;99.90;;;;;;5055087;28;20021;-77
2024/02/08 07:58:07;;;;;;;1.15;0.30;;;10.30;99.90;;;;;;5056359;28;20029;-77
2024/02/08 08:03:07;;;;;;;0.65;0.30;;;10.30;99.90;;;;;;5056218;28;20031;-77
2024/02/08 08:05:34;;;;;;;0.77;0.40;;;10.40;99.90;;;;;;5055672;28;20440;-78
2024/02/08 08:08:02;;;;;;;0.63;0.30;;;10.40;99.90;;;;;;5055037;28;20131;-78
2024/02/08 08:10:33;;;;;;;0.80;0.68;;;10.40;99.90;;;;;;5055370;28;20039;-78
2024/02/08 08:13:06;;;;;;;1.00;0.40;;;10.60;99.90;;;;;;5055967;28;20480;-77
2024/02/08 08:15:50;;;;;;;0.55;0.40;;;10.70;99.90;;;;;;5055134;28;20037;-77
2024/02/08 08:18:23;;;;;;;0.60;0.40;;;10.70;99.90;;;;;;5056353;28;20444;-78
2024/02/08 08:20:56;;;;;;;0.43;0.40;;;10.80;99.90;;;;;;5056243;28;20020;-76
2024/02/08 08:23:26;;;;;;;2.03;0.50;;;10.80;99.90;;;;;;5067009;28;20029;-77
2024/02/08 08:26:05;;;;;;;0.65;0.30;;;10.80;99.90;;;;;;5074517;28;20060;-77
2024/02/08 08:28:39;;;;;;;0.40;0.30;;;10.70;99.90;;;;;;5076482;28;20031;-77
2024/02/08 08:31:35;;;;;;;0.43;0.40;;;10.80;99.90;;;;;;5074338;28;20070;-77
2024/02/08 08:33:59;;;;;;;0.30;0.30;;;10.80;99.90;;;;;;5074966;28;20123;-77
2024/02/08 08:36:29;;;;;;;0.50;0.32;;;10.80;99.90;;;;;;5074934;28;20052;-77
2024/02/08 08:41:46;;;;;;;0.63;0.30;;;10.80;99.90;;;;;;5075503;28;20089;-77
2024/02/08 08:44:13;;;;;;;0.90;0.40;;;10.80;99.90;;;;;;5074313;28;20036;-77
2024/02/08 08:46:41;;;;;;;0.32;0.20;;;10.80;99.90;;;;;;5074883;28;20029;-78
2024/02/08 08:49:08;;;;;;;2.20;0.40;;;10.80;99.90;;;;;;5074262;28;20032;-78
2024/02/08 08:51:33;;;;;;;0.55;0.40;;;10.90;99.90;;;;;;5074623;28;20024;-76
2024/02/08 08:54:14;;;;;;;0.60;0.40;;;10.90;99.90;;;;;;5074068;28;20530;-77
2024/02/08 08:56:40;;;;;;;0.40;0.30;;;10.90;99.90;;;;;;5075707;28;20026;-78
2024/02/08 08:59:06;;;;;;;0.57;0.30;;;10.90;99.90;;;;;;5073769;28;20032;-78
2024/02/08 09:01:36;;;;;;;0.20;0.20;;;10.90;99.90;;;;;;5075606;28;20032;-78
2024/02/08 09:04:25;;;;;;;1.05;0.20;;;11.00;99.90;;;;;;5074188;28;20036;-78
2024/02/08 09:06:53;;;;;;;1.42;0.30;;;11.00;99.90;;;;;;5074428;28;20024;-78
2024/02/08 09:09:38;;;;;;;1.50;0.40;;;11.00;99.90;;;;;;5074929;28;20032;-77
2024/02/08 09:12:04;;;;;;;0.47;0.30;;;11.00;99.90;;;;;;5074852;28;20040;-77
2024/02/08 09:14:30;;;;;;;0.38;0.30;;;11.10;99.90;;;;;;5075191;28;20037;-78
2024/02/08 09:16:59;;;;;;;1.20;0.30;;;11.10;99.90;;;;;;5074592;28;20078;-77
2024/02/08 09:19:29;;;;;;;2.03;0.20;;;11.10;99.90;;;;;;5074683;28;20112;-78
2024/02/08 09:22:06;;;;;;;0.38;0.20;;;11.10;99.90;;;;;;5073402;28;20123;-77
2024/02/08 09:24:38;;;;;;;0.20;0.20;;;11.10;99.90;;;;;;5073743;28;20033;-78
2024/02/08 09:27:16;;;;;;;;;;;11.00;99.90;;;;;;5073836;28;20031;-78
2024/02/08 09:29:43;;;;;;;1.17;0.30;;;11.10;99.90;;;;;;5073644;28;20365;-78
2024/02/08 09:32:18;;;;;;;1.77;0.40;;;11.00;99.90;;;;;;5072824;28;20067;-77
2024/02/08 09:34:46;;;;;;;0.75;0.20;;;11.00;99.90;;;;;;5073883;28;20032;-78
2024/02/08 09:37:13;;;;;;;0.38;0.20;;;11.00;99.90;;;;;;5074523;28;20017;-78
2024/02/08 09:42:27;;;;;;;0.32;0.22;;;11.00;99.90;;;;;;5074458;28;20391;-78
2024/02/08 09:47:52;;;;;;;0.40;0.35;;;10.90;99.90;;;;;;5074394;28;20031;-78
2024/02/08 09:50:39;;;;;;;0.20;0.20;;;11.00;99.90;;;;;;5072965;28;20025;-77
2024/02/08 09:53:15;;;;;;;0.35;0.22;;;11.00;99.90;;;;;;5073794;28;20024;-78
2024/02/08 09:55:43;;;;;;;0.50;0.30;;;11.00;99.90;;;;;;5074035;28;20029;-78
2024/02/08 09:58:13;;;;;;;1.27;0.40;;;11.10;99.90;;;;;;5072492;28;20029;-78
2024/02/08 10:00:57;;;;;;;1.25;0.32;;;11.10;99.90;;;;;;5073730;28;20024;-78
2024/02/08 10:03:35;;;;;;;0.68;0.40;;;11.10;99.90;;;;;;5073114;28;20036;-78
2024/02/08 10:06:12;;;;;;;0.73;0.30;;;11.10;99.90;;;;;;5072116;28;20029;-77
2024/02/08 10:09:08;;;;;;;1.17;0.22;;;11.10;99.90;;;;;;5074050;28;20036;-78
2024/02/08 10:11:43;;;;;;;0.57;0.40;;;11.10;99.90;;;;;;5074135;28;20369;-78
2024/02/08 10:14:25;;;;;;;1.30;0.40;;;11.10;99.90;;;;;;5073510;28;20046;-78
2024/02/08 10:17:00;;;;;;;0.40;0.38;;;11.10;99.90;;;;;;5073028;28;20024;-79
2024/02/08 10:19:43;;;;;;;1.30;0.50;;;11.10;99.90;;;;;;5073095;28;20060;-79
2024/02/08 10:22:26;;;;;;;0.88;0.40;;;11.10;99.90;;;;;;5073327;28;20047;-79
2024/02/08 10:27:19;;;;;;;0.45;0.30;;;11.10;99.90;;;;;;5073327;28;20028;-79
2024/02/08 10:29:53;;;;;;;0.57;0.40;;;11.20;99.90;;;;;;5072708;28;20111;-78
2024/02/08 10:32:19;;;;;;;0.73;0.43;;;11.10;99.90;;;;;;5071966;28;20473;-78
2024/02/08 10:34:51;;;;;;;0.50;0.30;;;11.20;99.90;;;;;;5072697;28;20082;-79
2024/02/08 10:40:29;;;;;;;0.40;0.40;;;11.20;99.90;;;;;;5072796;28;20031;-78
2024/02/08 10:42:59;;;;;;;0.60;0.30;;;11.30;99.90;;;;;;5073482;28;20079;-79
2024/02/08 10:45:25;;;;;;;1.40;0.68;;;11.40;99.90;;;;;;5073586;28;20028;-79
2024/02/08 10:47:59;;;;;;;0.43;0.22;;;11.40;99.90;;;;;;5072354;28;20052;-79
2024/02/08 10:50:27;;;;;;;0.32;0.20;;;11.30;99.90;;;;;;5073383;28;20047;-79
2024/02/08 10:53:00;;;;;;;0.85;0.22;;;11.40;99.90;;;;;;5072462;28;20372;-79
2024/02/08 10:55:39;;;;;;;0.77;0.47;;;11.40;99.90;;;;;;5072640;28;20028;-79
2024/02/08 11:08:32;;;;;;;0.20;0.20;;;11.60;99.90;;;;;;5072129;28;20028;-78
2024/02/08 11:11:03;;;;;;;0.30;0.30;;;11.70;99.90;;;;;;5073340;28;20031;-78
2024/02/08 11:13:37;;;;;;;0.30;0.20;;;11.70;99.90;;;;;;5072514;28;20397;-78
2024/02/08 11:16:20;;;;;;;0.50;0.40;;;11.70;99.90;;;;;;5071085;28;20032;-78
2024/02/08 11:18:51;;;;;;;0.30;0.30;;;11.70;99.90;;;;;;5072930;28;20029;-79
2024/02/08 11:21:28;;;;;;;0.45;0.30;;;11.60;99.90;;;;;;5071544;28;20074;-78
2024/02/08 11:23:57;;;;;;;0.88;0.30;;;11.60;99.90;;;;;;5072094;28;20036;-79
2024/02/08 11:26:25;;;;;;;0.65;0.30;;;11.60;99.90;;;;;;5071287;28;20099;-79
2024/02/08 11:29:01;;;;;;;0.77;0.30;;;11.60;99.90;;;;;;5071877;28;20025;-78
2024/02/08 11:31:32;;;;;;;1.33;0.40;;;11.60;99.90;;;;;;5071866;28;20025;-78
2024/02/08 11:34:13;;;;;;;1.35;0.32;;;11.60;99.90;;;;;;5071920;28;20485;-79
2024/02/08 11:36:42;;;;;;;0.68;0.30;;;11.60;99.90;;;;;;5072835;28;20016;-78
2024/02/08 11:39:27;;;;;;;2.08;0.40;;;11.60;99.90;;;;;;5071352;28;20458;-78
2024/02/08 11:41:57;;;;;;;1.13;0.30;;;11.70;99.90;;;;;;5071506;28;20072;-79
2024/02/08 11:44:25;;;;;;;1.25;0.30;;;11.70;99.90;;;;;;5071196;28;20044;-79
2024/02/08 11:47:01;;;;;;;0.75;0.40;;;11.70;99.90;;;;;;5072903;28;20031;-79
2024/02/08 11:49:35;;;;;;;1.20;0.30;;;11.70;99.90;;;;;;5072340;28;20074;-79
2024/02/08 11:52:11;;;;;;;1.30;0.40;;;11.70;99.90;;;;;;5072728;28;20020;-78
2024/02/08 11:54:40;;;;;;;1.45;0.30;;;11.70;99.90;;;;;;5072994;28;20096;-79
2024/02/08 11:57:11;;;;;;;1.38;0.70;;;11.70;99.90;;;;;;5071339;28;20024;-79
2024/02/08 11:59:39;;;;;;;2.00;0.50;;;11.80;99.90;;;;;;5071767;28;20433;-79
2024/02/08 12:02:10;;;;;;;2.45;0.40;;;11.80;99.90;;;;;;5072035;28;20082;-78
2024/02/08 12:04:36;;;;;;;1.95;0.40;;;11.80;99.90;;;;;;5053433;28;20079;-78
2024/02/08 12:07:07;;;;;;;1.27;0.30;;;11.80;99.90;;;;;;5051870;28;20387;-79
2024/02/08 12:09:35;;;;;;;2.05;0.50;;;11.80;99.90;;;;;;5052494;28;20071;-78
2024/02/08 12:12:03;;;;;;;1.55;0.52;;;11.90;99.90;;;;;;5050811;28;20029;-78
2024/02/08 12:14:30;;;;;;;2.83;0.40;;;12.00;99.90;;;;;;5050857;28;20043;-78
2024/02/08 12:16:59;;;;;;;3.40;0.55;;;12.00;99.90;;;;;;5069360;28;20021;-79
2024/02/08 12:19:30;;;;;;;2.08;0.35;;;12.10;99.90;;;;;;5052558;28;20107;-80
2024/02/08 12:22:03;;;;;;;1.40;0.70;;;12.10;99.90;;;;;;5054953;28;20029;-79
2024/02/08 12:24:34;;;;;;;1.40;0.57;;;12.20;99.90;;;;;;5055483;28;20033;-79
2024/02/08 12:27:13;;;;;;;1.60;0.57;;;12.20;99.90;;;;;;5054320;28;20094;-80
2024/02/08 12:29:44;;;;;;;3.70;0.45;;;12.20;99.90;;;;;;5054853;28;20462;-79
2024/02/08 12:32:16;;;;;;;2.20;0.67;;;12.10;99.90;;;;;;5048069;28;20021;-79
2024/02/08 12:34:43;;;;;;;3.65;0.68;;;12.20;99.90;;;;;;5053657;28;20083;-80
2024/02/08 12:37:12;;;;;;;2.88;0.43;;;12.20;99.90;;;;;;5053523;28;20029;-77
2024/02/08 12:39:43;;;;;;;1.05;0.50;;;12.30;99.90;;;;;;5054068;28;20116;-77
2024/02/08 12:42:13;;;;;;;3.97;0.50;;;12.30;99.90;;;;;;5053782;28;20106;-78
2024/02/08 12:44:39;;;;;;;2.95;0.88;;;12.30;99.90;;;;;;5052660;28;20033;-78
2024/02/08 12:47:06;;;;;;;3.78;1.02;;;12.20;99.90;;;;;;5051558;28;20447;-78
2024/02/08 12:49:34;;;;;;;1.52;1.08;;;12.30;99.90;;;;;;5052768;28;20055;-78
2024/02/08 12:52:03;;;;;;;3.97;0.77;;;12.30;99.90;;;;;;5052266;28;20036;-78
2024/02/08 12:54:29;;;;;;;5.10;1.08;;;12.40;99.90;;;;;;5053669;28;20325;-79
2024/02/08 12:57:10;;;;;;;4.85;0.73;;;12.40;99.90;;;;;;5054071;28;20052;-79
2024/02/08 12:59:41;;;;;;;5.88;0.98;;;12.50;99.90;;;;;;5054607;28;20025;-79
2024/02/08 13:02:09;;;;;;;4.00;0.80;;;12.50;99.90;;;;;;5053881;28;20129;-79
2024/02/08 13:04:36;;;;;;;3.00;0.90;;;12.50;99.90;;;;;;5071052;28;20040;-78
2024/02/08 13:07:04;;;;;;;3.95;0.90;;;12.60;99.90;;;;;;5071094;28;20025;-79
2024/02/08 13:09:35;;;;;;;5.63;1.52;;;12.70;99.90;;;;;;5053741;28;20547;-79
2024/02/08 13:12:14;;;;;;;3.57;1.03;;;12.70;99.90;;;;;;5054392;28;20025;-79
2024/02/08 13:14:57;;;;;;;3.70;1.00;;;12.70;99.90;;;;;;5070965;28;20312;-79
2024/02/08 13:17:26;;;;;;;6.75;1.88;;;12.80;99.90;;;;;;5070445;28;20444;-79
2024/02/08 13:19:55;;;;;;;4.28;1.25;;;12.70;99.90;;;;;;5071064;28;20075;-79
2024/02/08 13:22:24;;;;;;;8.30;1.30;;;12.70;99.90;;;;;;5070244;28;20087;-79
2024/02/08 13:24:53;;;;;;;5.95;1.55;;;12.80;99.90;;;;;;5070841;28;20039;-79
2024/02/08 13:27:24;;;;;;;5.70;1.30;;;12.80;99.90;;;;;;5070131;28;20061;-78
2024/02/08 13:29:53;;;;;;;5.70;1.35;;;12.80;99.90;;;;;;5054517;28;20536;-78
2024/02/08 13:32:24;;;;;;;5.13;1.63;;;12.80;99.90;;;;;;5052839;28;20033;-78
2024/02/08 13:34:53;;;;;;;6.95;1.05;;;12.70;99.90;;;;;;5054904;28;20029;-78
2024/02/08 13:37:22;;;;;;;4.72;1.08;;;12.80;99.90;;;;;;5069272;28;20432;-78
2024/02/08 13:39:48;;;;;;;6.97;1.25;;;12.80;99.90;;;;;;5052712;28;20040;-79
2024/02/08 13:42:18;;;;;;;6.38;1.60;;;12.70;99.90;;;;;;5053647;28;20052;-79
2024/02/08 13:44:44;;;;;;;6.25;2.00;;;12.70;99.90;;;;;;5054317;28;20037;-78
2024/02/08 13:47:11;;;;;;;6.03;1.63;;;12.80;99.90;;;;;;5069415;28;20025;-78
2024/02/08 13:49:37;;;;;;;7.45;1.70;;;12.80;99.90;;;;;;5054369;28;20545;-78
2024/02/08 13:52:03;;;;;;;10.85;1.73;;;12.80;99.90;;;;;;5068932;28;20168;-79
2024/02/08 13:54:31;;;;;;;8.27;1.88;;;12.90;99.90;;;;;;5053648;28;20037;-78
2024/02/08 13:56:59;;;;;;;7.85;1.85;;;13.00;99.90;;;;;;5059844;28;20027;-79
2024/02/08 13:59:25;;;;;;;7.28;1.30;;;13.00;99.90;;;;;;5053714;28;20025;-78
2024/02/08 14:01:52;;;;;;;5.05;1.55;;;13.00;99.90;;;;;;5053682;28;20031;-78
2024/02/08 14:04:21;;;;;;;10.13;1.50;;;13.00;99.90;;;;;;5046119;28;20033;-79
2024/02/08 14:06:56;;;;;;;8.45;1.63;;;13.00;99.90;;;;;;5052362;28;20017;-78
2024/02/08 14:09:25;;;;;;;8.43;1.63;;;13.00;99.90;;;;;;5050717;28;20025;-78
2024/02/08 14:11:58;;;;;;;10.40;1.70;;;13.00;99.90;;;;;;5052304;28;20048;-78
2024/02/08 14:14:40;;;;;;;6.00;1.52;;;13.00;99.90;;;;;;5053172;28;20065;-78
2024/02/08 14:17:20;;;;;;;6.60;1.90;;;13.00;99.90;;;;;;5052406;28;20017;-78
2024/02/08 14:19:49;;;;;;;9.95;1.55;;;13.00;99.90;;;;;;5052767;28;20018;-78
2024/02/08 14:22:16;;;;;;;5.55;1.42;;;13.00;99.90;;;;;;5050363;28;20029;-78
2024/02/08 14:24:50;;;;;;;8.73;1.65;;;13.00;99.90;;;;;;5052226;28;20036;-80
2024/02/08 14:27:23;;;;;;;9.40;3.00;;;13.00;99.90;;;;;;5050341;28;20025;-80
2024/02/08 14:29:50;;;;;;;7.15;1.30;;;12.90;99.90;;;;;;5054016;28;20025;-78
2024/02/08 14:32:21;;;;;;;9.48;1.52;;;12.90;99.90;;;;;;5050255;28;20055;-78
2024/02/08 14:34:47;;;;;;;13.88;2.22;;;12.90;99.90;;;;;;5051479;28;20689;-79
2024/02/08 14:37:12;;;;;;;7.55;1.40;;;13.00;99.90;;;;;;5061780;28;20029;-79
2024/02/08 14:39:38;;;;;;;9.00;1.85;;;13.00;99.90;;;;;;5065247;28;20041;-80
2024/02/08 14:42:11;;;;;;;10.20;1.80;;;13.10;99.90;;;;;;5064427;28;20117;-79
2024/02/08 14:44:44;;;;;;;9.00;1.80;;;13.10;99.90;;;;;;5063430;28;20071;-79
2024/02/08 14:47:15;;;;;;;10.07;1.60;;;13.10;99.90;;;;;;5079515;28;20523;-79
2024/02/08 14:49:58;;;;;;;6.70;1.77;;;13.10;99.90;;;;;;5076690;28;20369;-79
2024/02/08 14:52:34;;;;;;;18.05;2.50;;;13.10;99.90;;;;;;5051621;28;20489;-79
2024/02/08 14:55:10;;;;;;;5.85;1.48;;;13.00;99.90;;;;;;5061645;28;20059;-78
2024/02/08 14:57:45;;;;;;;16.42;1.90;;;13.00;99.90;;;;;;5058667;28;20529;-77
2024/02/08 15:03:20;;;;;;;8.70;2.55;;;13.10;99.90;;;;;;5057286;28;20108;-78
2024/02/08 15:11:02;;;;;;;10.07;1.45;;;13.10;99.90;;;;;;5056013;28;20052;-79
2024/02/08 15:13:45;;;;;;;11.05;2.08;;;13.10;99.90;;;;;;5056173;28;20549;-79
2024/02/08 15:16:14;;;;;;;7.53;1.30;;;13.10;99.90;;;;;;5073198;28;20025;-79
2024/02/08 15:18:47;;;;;;;8.65;1.83;;;13.10;99.90;;;;;;5054091;28;20025;-79
2024/02/08 15:21:14;;;;;;;11.20;1.88;;;13.10;99.90;;;;;;5051505;28;20029;-78
2024/02/08 15:24:04;;;;;;;9.70;2.42;;;13.10;99.90;;;;;;5051569;28;20017;-79
2024/02/08 15:26:37;;;;;;;9.68;2.03;;;13.10;99.90;;;;;;5050373;28;20040;-79